Aeroporto :
LOGIN :

Iscrizione | Disclaimer

   EN    FR    IT 

 










Sommario :    VFR   VFR Marginale   IFR   IFR Intensivo   IFR Molto Intensivo
Visibilità : 
Base nubi : 
>= 8 km
>= 3000ft
5 / 8 km
1000 / 3000 ft
1500m / 5 km
500 / 1000 ft
800 / 1500m
200 / 500 ft
< 800m
< 200 ft
Simboli :   Temporali  Nebbia  Neve Forte  Precipitazioni Forti  Vento > 20 kt
SIGMETs :   Varie  Temporali  Ghiacco  Turbolenza  Onda orograficha  Ceneri Vulcaniche






- Altitudine del aeroporto : 2661 ft
- Codice IATA : CBH


DAOR - Béchar Boudghene Ben Ali Lotfi

ULTIMO METAR :
  • 071000Z 27004KT CAVOK 25/M07 Q1024

METARs OBSOLETI :
  • 070900Z 13002KT CAVOK 23/M06 Q1024
  • 070800Z 33001KT CAVOK 19/M06 Q1023

TAF TAF DAOR
Valido dal 07 a 09 ore il 07 a 18 ore UTC


070800Z 0709/0718 VRB02KT CAVOK
BECMG 0710/0713 24010KT
PROB30
TEMPO 0713/0717 24020KT DRDU



MetMap, La meteo Aeronautica in un colpo d'occhio ! - Copyright ORBIFLY Dicembre 2007 - Disclaimer

ORBIFLY MET'MAP TEAM :

Programmazione e sviluppo : Alexandra Zaïnal
Concezione : Baudouin d'Aumeries
Aiuto per la programmazione : Marc-Olivier Méhu
Supporto tecnico e logistico : Manuel Goepfert
Aiuto per la traduzione : Arnaldo La Scala

Contatto : metmap@orbifly.com




FONTI E CREDITI :

   NOAA